Terminal Aerodrome Forecast
Issued by NWS Corpus Christi, TX

Home | Current Version | Previous Version | Text Only | Print | Product List | Glossary On
Versions: 1 2 3 4 5 6 7 8 9 10 11 12
971
FTUS44 KCRP 052335
TAFCRP
TAF
KCRP 052335Z 0600/0624 12007KT P6SM SCT250
     FM060800 VRB04KT P6SM FEW250
     FM061600 10010KT P6SM FEW040 SCT250=

USA.gov is the U.S. government's official web portal to all federal, state and local government web resources and services.